Meridian, MS (39305)

9:02 PM CDT on October 31, 2014 (GMT -0500)
3.2 NW Meridian (Pine Springs Rd.) | Change Station
CLOSE
Current Station
Personal Weather Station
Location: Meridian, MS
Elevation: 328 ft
Nearby Weather Stations
Active Advisory: Freeze Warning, Freeze Watch

Elev 328 ft 32.42 °N, 88.75 °W | Updated 1 second ago

Partly Cloudy
Partly Cloudy
52.5 °F
Feels Like 52.5 °F
N
1.0
Wind Variable Wind from NNW
Gusts 21.0 mph

Today
High -- | Low -- °F
--% Chance of Precip.
Yesterday
High -- | Low -- °F
Precip. -- in
7:11 AM 6:05 PM
First Quarter, 61% visible
Pressure 30.16 in
Visibility 10.0 miles
Clouds Clear
Dew Point 41 °F
Humidity 64%
Rainfall 0.00 in
Snow Depth Not available.
UV 0 out of 12
Pollen 1.70 out of 12
Air Quality Not available.
Flu Activity Not available.
METAR KMEI 010158Z 34010KT 10SM CLR 11/01 A3016 RMK AO2 PK WND 33028/0104 SLP213 T01110011

More Conditions Fewer Conditions

Pressure 30.16 in
Visibility 10.0 miles
Clouds Clear
Dew Point 41 °F
Humidity 64%
Rainfall 0.00 in
Snow Depth Not available.
UV 0 out of 12
Pollen 1.70 out of 12
Air Quality Not available.
Flu Activity Not available.
METAR KMEI 010158Z 34010KT 10SM CLR 11/01 A3016 RMK AO2 PK WND 33028/0104 SLP213 T01110011

More Conditions Fewer Conditions

10-Day Weather Forecast

Almanac

Astronomy

Oct. 31, 2014 Rise Set
Actual Time
Civil Twilight
Nautical Twilight
Astronomical Twilight
Moon
Length of Visible Light
Length of Day
Tomorrow will be .
, % of the Moon is Illuminated

Today's Extremes

State Highs State Lows

Community

WunderPhotos

Upload Photos

1,766,816 photos uploaded!

WunderBlogs® & News

Nearby

Air Quality

  Air Quality AQ Index Pollutant
Not available.

Snow Depth

Station Depth Elevation

Earthquake Activity

City Distance Mag. Time & Date
Minimum magnitude displayed is 2.5.

Coastal Water Temperatures

Place Temperature

Nearby Weather Stations